Time;durP1;ratioP1;P1;durP2;ratioP2;P2;SDS_P1;SDS_P2;PMS_P1;PMS_P2;Temp;Humidity;BMP_temperature;BMP_pressure;BME280_temperature;BME280_humidity;BME280_pressure;Samples;Min_cycle;Max_cycle;Signal;HPM_P1;HPM_P2
2022/08/01 00:00:36;;;;;;;7.30;1.90;;;16.60;99.90;;;;;;4990603;28;20022;-75
2022/08/01 00:03:03;;;;;;;5.07;1.65;;;16.70;99.90;;;;;;4994020;28;20034;-76
2022/08/01 00:05:28;;;;;;;7.97;1.70;;;16.60;99.90;;;;;;4990079;28;20065;-76
2022/08/01 00:07:54;;;;;;;6.20;1.92;;;16.50;99.90;;;;;;5032461;23;20041;-83
2022/08/01 00:10:20;;;;;;;7.53;1.95;;;16.50;99.90;;;;;;5048921;28;20086;-83
2022/08/01 00:12:46;;;;;;;10.52;1.73;;;16.60;99.90;;;;;;5049581;28;20021;-82
2022/08/01 00:15:14;;;;;;;9.15;1.38;;;16.60;99.90;;;;;;5048670;28;20108;-83
2022/08/01 00:17:40;;;;;;;4.32;1.20;;;16.70;99.90;;;;;;5042608;28;20112;-82
2022/08/01 00:20:08;;;;;;;8.20;1.70;;;16.70;99.90;;;;;;5023103;28;20105;-83
2022/08/01 00:22:34;;;;;;;3.72;1.60;;;16.80;99.90;;;;;;5027950;28;20584;-82
2022/08/01 00:25:00;;;;;;;7.32;1.90;;;16.90;99.90;;;;;;5033183;28;20033;-83
2022/08/01 00:27:26;;;;;;;6.47;2.30;;;16.90;99.90;;;;;;5033670;28;20118;-82
2022/08/01 00:29:52;;;;;;;5.63;1.50;;;16.90;99.90;;;;;;5031652;28;20665;-82
2022/08/01 00:32:18;;;;;;;10.77;1.98;;;16.90;99.90;;;;;;5033502;28;20096;-83
2022/08/01 00:34:44;;;;;;;8.27;2.20;;;16.80;99.90;;;;;;5032852;28;20025;-84
2022/08/01 00:37:09;;;;;;;5.07;1.95;;;16.80;99.90;;;;;;5033356;28;20204;-83
2022/08/01 00:39:35;;;;;;;7.63;1.63;;;16.80;99.90;;;;;;5030943;28;20038;-83
2022/08/01 00:42:07;;;;;;;5.20;1.90;;;16.80;99.90;;;;;;5033397;28;20512;-83
2022/08/01 00:44:33;;;;;;;11.95;2.38;;;16.80;99.90;;;;;;5033302;28;20030;-83
2022/08/01 00:46:58;;;;;;;6.70;1.88;;;16.80;99.90;;;;;;5031636;28;20055;-83
2022/08/01 00:49:24;;;;;;;8.20;2.30;;;16.80;99.90;;;;;;5032991;28;20386;-83
2022/08/01 00:51:50;;;;;;;7.95;1.85;;;16.80;99.90;;;;;;5031430;28;20017;-83
2022/08/01 00:54:16;;;;;;;4.32;1.52;;;16.90;99.90;;;;;;5032676;28;20023;-83
2022/08/01 00:56:41;;;;;;;7.93;2.05;;;16.90;99.90;;;;;;5031539;28;20544;-83
2022/08/01 00:59:08;;;;;;;8.73;2.30;;;16.90;99.90;;;;;;5032781;28;20025;-83
2022/08/01 01:01:34;;;;;;;9.13;2.15;;;16.90;99.90;;;;;;5032503;28;20051;-83
2022/08/01 01:04:00;;;;;;;9.48;2.15;;;17.00;99.90;;;;;;5031315;28;20056;-83
2022/08/01 01:06:58;;;;;;;5.40;1.63;;;17.00;99.90;;;;;;5032088;28;20395;-83
2022/08/01 01:09:24;;;;;;;9.32;2.83;;;17.00;99.90;;;;;;5039459;23;20041;-76
2022/08/01 01:11:56;;;;;;;4.35;2.10;;;17.00;99.90;;;;;;5012632;28;20044;-75
2022/08/01 01:14:46;;;;;;;6.85;3.30;;;17.00;99.90;;;;;;5010994;28;20101;-75
2022/08/01 01:17:17;;;;;;;11.70;2.75;;;17.10;99.90;;;;;;5012335;28;20029;-76
2022/08/01 01:19:47;;;;;;;8.90;2.50;;;17.10;99.90;;;;;;5012477;28;20045;-76
2022/08/01 01:22:42;;;;;;;11.32;2.47;;;17.20;99.90;;;;;;5012893;28;20271;-75
2022/08/01 01:25:17;;;;;;;4.43;2.45;;;17.20;99.90;;;;;;5007836;28;20171;-75
2022/08/01 01:28:00;;;;;;;6.95;1.90;;;17.10;99.90;;;;;;5012627;28;20030;-76
2022/08/01 01:30:30;;;;;;;4.35;1.77;;;17.00;99.90;;;;;;5007554;28;20471;-76
2022/08/01 01:33:00;;;;;;;7.43;1.90;;;17.00;99.90;;;;;;5012624;28;20025;-75
2022/08/01 01:35:29;;;;;;;5.40;1.90;;;16.90;99.90;;;;;;5010725;28;20175;-76
2022/08/01 01:38:19;;;;;;;6.65;1.83;;;16.80;99.90;;;;;;5012035;28;20022;-75
2022/08/01 01:40:47;;;;;;;4.95;2.15;;;16.80;99.90;;;;;;5011872;28;20029;-75
2022/08/01 01:43:14;;;;;;;8.27;2.30;;;16.70;99.90;;;;;;5011957;28;20037;-76
2022/08/01 01:45:41;;;;;;;7.28;1.50;;;16.70;99.90;;;;;;5012349;28;20026;-75
2022/08/01 01:48:09;;;;;;;5.25;1.90;;;16.60;99.90;;;;;;5011571;28;20511;-75
2022/08/01 01:50:37;;;;;;;4.22;1.73;;;16.60;99.90;;;;;;5011946;28;20026;-75
2022/08/01 01:53:05;;;;;;;5.55;2.67;;;16.60;99.90;;;;;;5012077;28;20014;-76
2022/08/01 01:55:32;;;;;;;7.18;2.95;;;16.70;99.90;;;;;;5011587;28;20030;-76
2022/08/01 01:57:59;;;;;;;12.88;2.88;;;16.70;99.90;;;;;;5011836;28;20018;-76
2022/08/01 02:00:27;;;;;;;15.98;3.17;;;16.90;99.90;;;;;;5012143;28;20041;-76
2022/08/01 02:02:56;;;;;;;16.67;3.22;;;17.10;99.90;;;;;;5012041;28;20352;-76
2022/08/01 02:05:23;;;;;;;5.50;2.33;;;17.20;99.90;;;;;;5011829;28;20092;-76
2022/08/01 02:07:50;;;;;;;8.65;2.92;;;17.30;99.90;;;;;;5031426;23;20046;-83
2022/08/01 02:10:18;;;;;;;5.15;2.83;;;17.30;99.90;;;;;;5011865;28;20018;-83
2022/08/01 02:12:46;;;;;;;8.68;2.85;;;17.40;99.90;;;;;;5011360;28;20436;-83
2022/08/01 02:15:13;;;;;;;7.13;3.05;;;17.40;99.90;;;;;;5011249;28;20536;-83
2022/08/01 02:17:47;;;;;;;9.45;3.38;;;17.40;99.90;;;;;;5011454;28;20029;-82
2022/08/01 02:20:13;;;;;;;6.60;3.00;;;17.40;99.90;;;;;;5010424;28;20033;-83
2022/08/01 02:22:53;;;;;;;12.43;3.45;;;17.40;99.90;;;;;;5010572;28;20028;-83
2022/08/01 02:25:24;;;;;;;8.07;2.42;;;17.40;99.90;;;;;;5009810;28;20606;-83
2022/08/01 02:28:00;;;;;;;7.47;2.90;;;17.30;99.90;;;;;;5009272;28;20018;-82
2022/08/01 02:30:30;;;;;;;5.28;3.05;;;17.30;99.90;;;;;;5004907;28;20390;-83
2022/08/01 02:33:09;;;;;;;8.73;2.80;;;17.20;99.90;;;;;;5004124;28;20017;-82
2022/08/01 02:35:40;;;;;;;7.07;3.03;;;17.20;99.90;;;;;;5009607;28;20030;-82
2022/08/01 02:38:12;;;;;;;6.03;3.00;;;17.20;99.90;;;;;;5014115;28;20093;-83
2022/08/01 02:40:41;;;;;;;4.22;2.60;;;17.20;99.90;;;;;;5010846;28;20120;-82
2022/08/01 02:43:10;;;;;;;4.55;2.97;;;17.20;99.90;;;;;;5011424;28;20153;-83
2022/08/01 02:45:42;;;;;;;6.85;2.55;;;17.20;99.90;;;;;;5009224;28;20080;-82
2022/08/01 02:48:11;;;;;;;3.42;2.60;;;17.30;99.90;;;;;;5010735;28;20021;-83
2022/08/01 02:50:39;;;;;;;10.25;2.97;;;17.30;99.90;;;;;;5009455;28;20042;-83
2022/08/01 02:53:09;;;;;;;4.68;2.97;;;17.40;99.90;;;;;;5010356;28;20026;-83
2022/08/01 02:55:38;;;;;;;9.38;3.28;;;17.40;99.90;;;;;;5009074;28;20022;-83
2022/08/01 02:58:06;;;;;;;7.25;2.90;;;17.40;99.90;;;;;;5009176;28;20033;-84
2022/08/01 03:00:32;;;;;;;5.13;2.80;;;17.40;99.90;;;;;;5010617;28;20028;-82
2022/08/01 03:03:01;;;;;;;6.22;2.85;;;17.40;99.90;;;;;;5011333;28;20033;-83
2022/08/01 03:05:27;;;;;;;6.30;2.92;;;17.40;99.90;;;;;;5011273;28;20032;-83
2022/08/01 03:07:55;;;;;;;9.50;3.13;;;17.50;99.90;;;;;;5034945;23;20040;-76
2022/08/01 03:10:22;;;;;;;4.88;2.65;;;17.50;99.90;;;;;;5032192;28;20433;-75
2022/08/01 03:12:50;;;;;;;4.43;3.10;;;17.50;99.90;;;;;;5029821;28;20021;-77
2022/08/01 03:15:18;;;;;;;7.40;2.38;;;17.60;99.90;;;;;;5030051;28;20026;-76
2022/08/01 03:17:46;;;;;;;5.72;2.67;;;17.50;99.90;;;;;;5030521;28;20025;-75
2022/08/01 03:20:14;;;;;;;5.72;2.50;;;17.50;99.90;;;;;;5030174;28;20495;-75
2022/08/01 03:22:43;;;;;;;5.07;2.70;;;17.50;99.90;;;;;;5029798;28;20009;-75
2022/08/01 03:25:11;;;;;;;5.85;2.67;;;17.50;99.90;;;;;;5029861;28;20041;-76
2022/08/01 03:27:37;;;;;;;10.65;3.08;;;17.60;99.90;;;;;;5030190;28;20017;-75
2022/08/01 03:30:05;;;;;;;5.10;3.33;;;17.60;99.90;;;;;;5029964;28;20105;-75
2022/08/01 03:32:31;;;;;;;6.32;3.22;;;17.70;99.90;;;;;;5029228;28;20045;-75
2022/08/01 03:34:57;;;;;;;7.90;3.17;;;17.70;99.90;;;;;;5029865;28;20037;-75
2022/08/01 03:37:24;;;;;;;7.28;2.97;;;17.80;99.90;;;;;;5029226;28;20020;-75
2022/08/01 03:40:05;;;;;;;9.52;3.50;;;17.80;99.90;;;;;;5029296;28;20033;-75
2022/08/01 03:42:38;;;;;;;7.07;2.65;;;17.80;99.90;;;;;;5028689;28;20069;-75
2022/08/01 03:45:12;;;;;;;4.45;2.50;;;17.80;99.90;;;;;;5024715;28;20041;-76
2022/08/01 03:47:41;;;;;;;10.35;2.92;;;17.80;99.90;;;;;;5029454;28;20032;-75
2022/08/01 03:50:08;;;;;;;9.82;3.65;;;17.80;99.90;;;;;;5025009;28;20021;-76
2022/08/01 03:52:39;;;;;;;6.10;3.67;;;17.80;99.90;;;;;;5025141;28;20108;-75
2022/08/01 03:55:07;;;;;;;6.72;3.40;;;17.80;99.90;;;;;;5025716;28;20418;-75
2022/08/01 03:57:34;;;;;;;8.05;2.60;;;17.80;99.90;;;;;;5024197;28;20490;-76
2022/08/01 04:00:00;;;;;;;6.38;3.53;;;17.80;99.90;;;;;;5031369;28;20021;-75
2022/08/01 04:02:29;;;;;;;8.95;3.83;;;17.90;99.90;;;;;;5032830;28;20029;-75
2022/08/01 04:04:55;;;;;;;10.23;3.95;;;18.00;99.90;;;;;;5032707;28;20034;-75
2022/08/01 04:09:49;;;;;;;6.90;3.92;;;18.00;99.90;;;;;;5018274;28;20042;-83
2022/08/01 04:12:14;;;;;;;5.53;3.35;;;17.90;99.90;;;;;;5029121;28;20021;-83
2022/08/01 04:14:40;;;;;;;7.25;3.38;;;18.00;99.90;;;;;;5013904;28;20388;-83
2022/08/01 04:17:06;;;;;;;10.25;4.57;;;17.90;99.90;;;;;;5028954;28;20076;-82
2022/08/01 04:19:31;;;;;;;7.35;4.53;;;18.00;99.90;;;;;;5013865;28;20475;-82
2022/08/01 04:21:57;;;;;;;11.23;4.63;;;18.00;99.90;;;;;;5011134;28;20026;-83
2022/08/01 04:24:25;;;;;;;11.10;4.05;;;18.00;99.90;;;;;;5013212;28;20542;-83
2022/08/01 04:26:52;;;;;;;8.38;4.82;;;18.10;99.90;;;;;;5012309;28;20033;-82
2022/08/01 04:29:20;;;;;;;8.05;4.00;;;18.00;99.90;;;;;;5006497;28;20032;-82
2022/08/01 04:31:49;;;;;;;8.95;4.70;;;18.00;99.90;;;;;;5012803;28;20057;-83
2022/08/01 04:34:19;;;;;;;10.57;4.97;;;18.00;99.90;;;;;;5012136;28;20568;-83
2022/08/01 04:36:47;;;;;;;11.45;5.25;;;18.00;99.90;;;;;;5012312;28;20041;-83
2022/08/01 04:39:15;;;;;;;12.48;4.43;;;18.10;99.90;;;;;;5016667;28;20571;-83
2022/08/01 04:41:41;;;;;;;11.77;4.40;;;18.10;99.90;;;;;;5013071;28;20026;-83
2022/08/01 04:44:08;;;;;;;8.57;4.20;;;18.10;99.90;;;;;;5011850;28;20117;-82
2022/08/01 04:46:34;;;;;;;12.15;4.72;;;18.10;99.90;;;;;;5012055;28;20026;-83
2022/08/01 04:49:01;;;;;;;7.72;4.75;;;18.10;99.90;;;;;;5012629;28;20072;-83
2022/08/01 04:51:26;;;;;;;11.43;4.57;;;18.10;99.90;;;;;;5011292;28;20014;-83
2022/08/01 04:53:52;;;;;;;8.43;4.63;;;18.10;99.90;;;;;;5012812;28;20437;-82
2022/08/01 04:56:21;;;;;;;12.40;4.25;;;18.20;99.90;;;;;;5012829;28;20109;-82
2022/08/01 04:58:47;;;;;;;7.88;4.70;;;18.20;99.90;;;;;;5011193;28;20021;-82
2022/08/01 05:01:13;;;;;;;7.80;4.75;;;18.20;99.90;;;;;;5011860;28;20429;-83
2022/08/01 05:03:39;;;;;;;7.53;4.22;;;18.20;99.90;;;;;;5015610;28;20084;-82
2022/08/01 05:06:06;;;;;;;11.07;4.82;;;18.30;99.90;;;;;;5012688;28;20033;-83
2022/08/01 05:08:32;;;;;;;6.57;4.40;;;18.30;99.90;;;;;;5032137;23;20052;-76
2022/08/01 05:10:57;;;;;;;5.22;3.72;;;18.30;99.90;;;;;;5013816;28;20022;-75
2022/08/01 05:13:23;;;;;;;6.45;4.38;;;18.30;99.90;;;;;;5026169;28;20113;-76
2022/08/01 05:15:49;;;;;;;5.93;3.88;;;18.40;99.90;;;;;;5011936;28;20022;-76
2022/08/01 05:18:14;;;;;;;8.68;4.10;;;18.40;99.90;;;;;;5012059;28;20028;-75
2022/08/01 05:20:41;;;;;;;8.65;4.10;;;18.50;99.90;;;;;;5012192;28;20064;-75
2022/08/01 05:23:07;;;;;;;8.27;4.07;;;18.60;99.90;;;;;;5012280;28;20026;-75
2022/08/01 05:25:33;;;;;;;5.15;3.72;;;18.60;99.90;;;;;;5011370;28;20030;-76
2022/08/01 05:27:59;;;;;;;6.38;3.85;;;18.60;99.90;;;;;;5012021;28;20014;-75
2022/08/01 05:30:25;;;;;;;9.43;4.13;;;18.70;99.90;;;;;;5012419;28;20025;-76
2022/08/01 05:32:50;;;;;;;12.63;4.43;;;18.80;99.90;;;;;;5012237;28;20026;-75
2022/08/01 05:35:16;;;;;;;11.20;4.28;;;18.80;99.90;;;;;;5011774;28;20029;-75
2022/08/01 05:37:42;;;;;;;9.02;4.30;;;18.80;99.90;;;;;;5012495;28;20028;-76
2022/08/01 05:40:08;;;;;;;9.68;4.07;;;18.80;99.90;;;;;;5011602;28;20078;-76
2022/08/01 05:42:34;;;;;;;5.90;3.47;;;18.90;99.90;;;;;;5011872;28;20029;-75
2022/08/01 05:44:59;;;;;;;9.00;3.67;;;18.90;99.90;;;;;;5011566;28;20033;-76
2022/08/01 05:47:25;;;;;;;5.40;3.95;;;19.00;99.90;;;;;;5011935;28;20018;-76
2022/08/01 05:49:51;;;;;;;7.30;3.58;;;19.10;99.90;;;;;;5012012;28;20036;-75
2022/08/01 05:52:16;;;;;;;6.07;3.28;;;19.10;99.90;;;;;;5012140;28;20414;-76
2022/08/01 05:54:42;;;;;;;4.53;3.17;;;19.10;99.90;;;;;;5011815;28;20080;-76
2022/08/01 05:57:08;;;;;;;7.38;3.70;;;19.10;99.90;;;;;;5012091;28;20379;-76
2022/08/01 05:59:33;;;;;;;6.63;3.45;;;19.10;99.90;;;;;;5011940;28;20025;-75
2022/08/01 06:01:59;;;;;;;7.32;3.10;;;19.20;99.90;;;;;;5014724;28;20486;-75
2022/08/01 06:04:25;;;;;;;5.97;2.88;;;19.30;99.90;;;;;;5011615;28;20125;-76
2022/08/01 06:06:51;;;;;;;5.65;3.13;;;19.30;99.90;;;;;;5011206;28;20105;-76
2022/08/01 06:09:17;;;;;;;4.72;3.03;;;19.40;99.90;;;;;;5044281;23;20041;-82
2022/08/01 06:11:42;;;;;;;7.30;2.80;;;19.50;99.90;;;;;;5032917;28;20367;-82
2022/08/01 06:14:08;;;;;;;4.65;3.20;;;19.60;99.90;;;;;;5031308;28;20467;-83
2022/08/01 06:16:34;;;;;;;3.30;2.47;;;19.60;99.90;;;;;;5030388;28;20028;-82
2022/08/01 06:19:00;;;;;;;7.65;2.35;;;19.70;99.90;;;;;;5029889;28;20064;-82
2022/08/01 06:21:26;;;;;;;5.53;2.55;;;19.60;99.90;;;;;;5035591;28;20052;-82
2022/08/01 06:23:52;;;;;;;6.03;2.20;;;19.70;99.90;;;;;;5038171;28;20662;-82
2022/08/01 06:26:18;;;;;;;4.50;2.03;;;19.70;99.90;;;;;;5029452;28;20030;-82
2022/08/01 06:28:44;;;;;;;4.65;2.42;;;19.70;99.90;;;;;;5030740;28;20027;-82
2022/08/01 06:31:12;;;;;;;5.13;2.00;;;19.80;99.90;;;;;;5034302;28;20025;-83
2022/08/01 06:33:38;;;;;;;4.90;1.90;;;19.70;99.90;;;;;;5031678;28;20079;-82
2022/08/01 06:36:04;;;;;;;1.88;1.33;;;19.80;99.90;;;;;;5028917;28;20496;-82
2022/08/01 06:38:29;;;;;;;3.83;1.90;;;19.70;99.90;;;;;;5029668;28;20514;-82
2022/08/01 06:40:55;;;;;;;3.95;1.55;;;19.80;99.90;;;;;;5031438;28;20111;-84
2022/08/01 06:43:21;;;;;;;3.45;1.50;;;19.80;99.90;;;;;;5029431;28;20044;-82
2022/08/01 06:45:47;;;;;;;2.50;1.52;;;19.70;99.90;;;;;;5028577;28;20025;-82
2022/08/01 06:48:13;;;;;;;3.78;1.80;;;19.70;99.90;;;;;;5029688;28;20029;-87
2022/08/01 06:50:39;;;;;;;2.65;1.60;;;19.70;99.90;;;;;;5031946;28;20394;-85
2022/08/01 06:53:05;;;;;;;2.42;1.15;;;19.70;99.90;;;;;;5029869;28;20021;-84
2022/08/01 06:55:31;;;;;;;2.60;1.45;;;19.70;99.90;;;;;;5028862;28;20063;-84
2022/08/01 06:57:57;;;;;;;2.38;1.58;;;19.70;99.90;;;;;;5028960;28;20449;-84
2022/08/01 07:00:24;;;;;;;6.90;1.70;;;19.80;99.90;;;;;;5028541;28;20026;-84
2022/08/01 07:02:55;;;;;;;4.07;1.27;;;19.90;99.90;;;;;;5029328;28;20486;-84
2022/08/01 07:05:21;;;;;;;3.30;1.60;;;19.90;99.90;;;;;;5026827;28;20160;-84
2022/08/01 07:07:47;;;;;;;2.42;1.40;;;19.90;99.90;;;;;;5049781;23;20060;-75
2022/08/01 07:10:12;;;;;;;3.22;1.40;;;19.80;99.90;;;;;;5028107;28;20025;-76
2022/08/01 07:12:40;;;;;;;3.50;1.38;;;19.80;99.90;;;;;;5030111;28;20034;-76
2022/08/01 07:15:07;;;;;;;2.30;1.10;;;19.80;99.90;;;;;;5029733;28;20025;-77
2022/08/01 07:17:35;;;;;;;4.00;2.10;;;19.80;99.90;;;;;;5030218;28;20033;-76
2022/08/01 07:20:01;;;;;;;4.38;1.58;;;19.80;99.90;;;;;;5024324;28;20523;-76
2022/08/01 07:22:27;;;;;;;4.13;1.02;;;19.70;99.90;;;;;;5009189;28;20040;-76
2022/08/01 07:24:53;;;;;;;3.78;1.40;;;19.70;99.90;;;;;;5010990;28;20049;-76
2022/08/01 07:27:18;;;;;;;8.35;1.45;;;19.70;99.90;;;;;;5009981;28;20383;-76
2022/08/01 07:29:44;;;;;;;2.47;1.38;;;19.70;99.90;;;;;;5011101;28;20081;-76
2022/08/01 07:32:10;;;;;;;2.17;1.30;;;19.70;99.90;;;;;;5012629;28;20033;-76
2022/08/01 07:34:35;;;;;;;2.45;1.30;;;19.70;99.90;;;;;;5015621;28;20104;-77
2022/08/01 07:37:01;;;;;;;5.47;1.60;;;19.70;99.90;;;;;;5015252;28;20030;-76
2022/08/01 07:39:27;;;;;;;2.90;0.88;;;19.70;99.90;;;;;;5008970;28;20015;-76
2022/08/01 07:41:52;;;;;;;2.88;0.95;;;19.80;99.90;;;;;;5014271;28;20026;-77
2022/08/01 07:44:18;;;;;;;8.27;1.52;;;19.90;99.90;;;;;;5014757;28;20030;-76
2022/08/01 07:46:43;;;;;;;1.77;1.02;;;19.90;99.90;;;;;;5014672;28;20049;-76
2022/08/01 07:49:09;;;;;;;1.92;1.08;;;19.90;99.90;;;;;;5014864;28;20079;-77
2022/08/01 07:51:35;;;;;;;2.10;1.23;;;20.00;99.90;;;;;;5013760;28;20022;-77
2022/08/01 07:54:01;;;;;;;2.00;1.00;;;20.10;99.90;;;;;;5009289;28;20033;-76
2022/08/01 07:56:26;;;;;;;2.33;0.85;;;20.10;99.90;;;;;;5013508;28;20372;-76
2022/08/01 07:58:52;;;;;;;3.58;1.27;;;20.10;99.90;;;;;;5011557;28;20033;-76
2022/08/01 08:01:19;;;;;;;2.65;1.52;;;20.20;99.90;;;;;;5004280;28;20481;-76
2022/08/01 08:03:45;;;;;;;4.55;0.95;;;20.20;99.90;;;;;;5010735;28;20034;-76
2022/08/01 08:06:11;;;;;;;1.95;0.80;;;20.30;99.90;;;;;;5014578;28;20022;-76
2022/08/01 08:08:36;;;;;;;2.55;1.10;;;20.40;99.90;;;;;;5014740;28;20459;-76
2022/08/01 08:11:03;;;;;;;2.58;1.10;;;20.40;99.90;;;;;;5014790;28;20064;-76
2022/08/01 08:13:29;;;;;;;1.02;0.73;;;20.50;99.90;;;;;;5021662;28;20097;-76
2022/08/01 08:15:55;;;;;;;1.40;0.93;;;20.50;99.90;;;;;;5014157;28;20014;-76
2022/08/01 08:18:21;;;;;;;5.72;1.20;;;20.50;99.90;;;;;;5014243;28;20108;-76
2022/08/01 08:20:47;;;;;;;2.15;1.13;;;20.50;99.90;;;;;;5014810;28;20108;-76
2022/08/01 08:25:57;;;;;;;1.52;0.93;;;20.60;99.90;;;;;;5014821;28;20045;-76
2022/08/01 08:28:23;;;;;;;2.22;0.88;;;20.70;99.90;;;;;;5014059;28;20022;-76
2022/08/01 08:30:49;;;;;;;2.60;0.90;;;20.80;99.90;;;;;;5013006;28;20160;-76
2022/08/01 08:33:14;;;;;;;2.03;1.15;;;20.90;99.90;;;;;;5011712;28;20029;-76
2022/08/01 08:35:41;;;;;;;2.25;0.70;;;20.90;99.90;;;;;;5014454;28;20030;-76
2022/08/01 08:38:07;;;;;;;2.20;1.17;;;21.20;99.90;;;;;;5014337;28;20013;-76
2022/08/01 08:40:35;;;;;;;1.08;0.73;;;21.40;99.90;;;;;;5013846;28;20029;-76
2022/08/01 08:43:04;;;;;;;3.03;1.20;;;21.60;99.90;;;;;;5012059;28;20034;-76
2022/08/01 08:45:30;;;;;;;2.10;0.90;;;21.70;99.90;;;;;;5011687;28;20028;-75
2022/08/01 08:47:57;;;;;;;1.17;0.85;;;21.50;99.90;;;;;;5013868;28;20033;-74
2022/08/01 08:50:25;;;;;;;2.58;0.95;;;21.50;99.90;;;;;;5013458;28;20065;-75
2022/08/01 08:52:55;;;;;;;3.03;0.90;;;21.50;99.90;;;;;;5013572;28;20471;-75
2022/08/01 08:55:21;;;;;;;1.75;0.90;;;21.60;99.90;;;;;;5009988;28;20040;-75
2022/08/01 08:57:47;;;;;;;6.57;1.25;;;21.70;99.90;;;;;;5011702;28;20406;-75
2022/08/01 09:00:14;;;;;;;2.08;0.73;;;21.80;99.90;;;;;;5007766;28;20105;-75
2022/08/01 09:02:49;;;;;;;1.10;1.00;;;21.70;99.90;;;;;;5015543;28;20026;-74
2022/08/01 09:05:16;;;;;;;2.47;1.38;;;21.70;99.90;;;;;;5013439;28;20165;-74
2022/08/01 09:07:42;;;;;;;1.48;1.13;;;21.70;99.90;;;;;;5012927;28;20029;-75
2022/08/01 09:10:09;;;;;;;3.53;1.30;;;21.70;99.90;;;;;;5013766;28;20018;-75
2022/08/01 09:12:36;;;;;;;1.23;1.00;;;21.80;99.90;;;;;;5015843;28;20053;-75
2022/08/01 09:15:03;;;;;;;1.60;0.88;;;21.80;99.90;;;;;;5018461;28;20502;-76
2022/08/01 09:17:40;;;;;;;1.38;1.08;;;21.80;99.90;;;;;;5013476;28;20193;-75
2022/08/01 09:20:06;;;;;;;2.30;0.82;;;21.50;99.90;;;;;;5013669;28;20022;-76
2022/08/01 09:22:33;;;;;;;1.13;0.98;;;21.50;99.90;;;;;;5014445;28;20502;-74
2022/08/01 09:25:08;;;;;;;2.83;1.15;;;21.70;99.90;;;;;;5018676;28;20590;-75
2022/08/01 09:27:37;;;;;;;1.80;0.85;;;22.30;99.90;;;;;;5007262;28;20018;-75
2022/08/01 09:30:11;;;;;;;2.53;0.80;;;22.70;99.90;;;;;;5013550;28;20022;-75
2022/08/01 09:33:02;;;;;;;2.15;1.38;;;22.90;99.90;;;;;;5013283;28;20016;-75
2022/08/01 09:35:35;;;;;;;2.35;0.85;;;23.00;99.90;;;;;;5010308;28;20041;-74
2022/08/01 09:38:16;;;;;;;1.17;0.93;;;23.20;99.90;;;;;;5010768;28;20041;-75
2022/08/01 09:40:55;;;;;;;4.18;0.88;;;23.40;99.90;;;;;;5012498;28;20049;-75
2022/08/01 09:43:24;;;;;;;2.20;0.90;;;23.80;99.90;;;;;;5012257;28;20030;-75
2022/08/01 09:45:50;;;;;;;1.52;0.70;;;24.00;99.90;;;;;;5011516;28;20077;-75
2022/08/01 09:48:17;;;;;;;2.45;1.00;;;24.00;99.90;;;;;;5006765;28;20080;-75
2022/08/01 09:50:45;;;;;;;1.90;1.00;;;23.70;99.90;;;;;;5008468;28;20072;-75
2022/08/01 09:53:12;;;;;;;2.70;1.45;;;23.30;99.90;;;;;;5010618;28;20024;-75
2022/08/01 09:55:38;;;;;;;2.55;1.10;;;22.80;99.90;;;;;;5011103;28;20041;-75
2022/08/01 09:58:05;;;;;;;2.60;1.13;;;22.60;99.90;;;;;;5008458;28;20022;-74
2022/08/01 10:00:33;;;;;;;3.78;1.20;;;22.60;99.90;;;;;;5011899;28;20033;-75
2022/08/01 10:03:00;;;;;;;4.97;1.45;;;22.60;99.90;;;;;;5004307;28;20014;-75
2022/08/01 10:05:33;;;;;;;1.38;1.25;;;22.80;99.90;;;;;;5009385;28;20033;-74
2022/08/01 10:08:04;;;;;;;8.15;1.45;;;22.80;99.90;;;;;;5011562;28;20032;-75
2022/08/01 10:10:31;;;;;;;3.58;1.35;;;22.80;99.90;;;;;;5011646;28;20049;-75
2022/08/01 10:12:59;;;;;;;3.88;1.23;;;22.80;99.90;;;;;;5012039;28;20045;-75
2022/08/01 10:15:26;;;;;;;2.65;1.20;;;22.60;99.90;;;;;;5012036;28;20028;-74
2022/08/01 10:18:00;;;;;;;4.05;1.40;;;22.30;99.90;;;;;;5011844;28;20022;-75
2022/08/01 10:20:29;;;;;;;2.47;1.23;;;22.10;99.90;;;;;;5005948;28;20029;-75
2022/08/01 10:22:59;;;;;;;1.58;1.30;;;22.10;99.90;;;;;;5010800;28;20105;-74
2022/08/01 10:25:28;;;;;;;1.05;0.90;;;21.90;99.90;;;;;;5010925;28;20034;-75
2022/08/01 10:27:57;;;;;;;3.80;1.42;;;21.80;99.90;;;;;;5010428;28;20022;-75
2022/08/01 10:30:23;;;;;;;3.45;1.10;;;21.70;99.90;;;;;;5011166;28;20029;-75
2022/08/01 10:32:52;;;;;;;2.78;1.20;;;21.60;99.90;;;;;;5004825;28;20096;-75
2022/08/01 10:35:19;;;;;;;3.35;1.15;;;21.50;99.90;;;;;;5006519;28;20117;-75
2022/08/01 10:37:47;;;;;;;2.20;1.23;;;21.50;99.90;;;;;;5028795;23;20017;-81
2022/08/01 10:40:14;;;;;;;3.17;1.35;;;21.50;99.90;;;;;;5015672;28;20056;-82
2022/08/01 10:42:44;;;;;;;3.67;1.10;;;21.40;99.90;;;;;;5010853;28;20033;-82
2022/08/01 10:45:12;;;;;;;1.77;1.45;;;21.40;99.90;;;;;;5007195;28;20099;-82
2022/08/01 10:47:58;;;;;;;3.47;1.10;;;21.40;99.90;;;;;;5009393;28;20018;-82
2022/08/01 10:50:44;;;;;;;1.65;1.23;;;21.50;99.90;;;;;;5009337;28;20133;-82
2022/08/01 10:53:15;;;;;;;1.75;1.20;;;21.50;99.90;;;;;;5004075;28;20018;-81
2022/08/01 10:55:52;;;;;;;1.20;1.10;;;21.60;99.90;;;;;;5010899;28;20042;-81
2022/08/01 10:58:26;;;;;;;1.30;1.08;;;21.60;99.90;;;;;;5010625;28;20017;-81
2022/08/01 11:01:18;;;;;;;3.72;1.20;;;21.60;99.90;;;;;;5010041;28;20014;-81
2022/08/01 11:04:09;;;;;;;2.40;1.30;;;21.70;99.90;;;;;;5008999;28;20022;-81
2022/08/01 11:06:34;;;;;;;1.83;1.55;;;21.90;99.90;;;;;;5009610;28;20442;-81
2022/08/01 11:09:05;;;;;;;1.70;1.20;;;22.10;99.90;;;;;;5010605;28;20029;-81
2022/08/01 11:11:31;;;;;;;2.33;1.90;;;22.30;99.90;;;;;;5010923;28;20018;-81
2022/08/01 11:14:12;;;;;;;3.00;1.48;;;22.30;99.90;;;;;;5010895;28;20026;-81
2022/08/01 11:16:40;;;;;;;4.53;1.70;;;22.20;99.90;;;;;;5005930;28;20388;-81
2022/08/01 11:19:10;;;;;;;3.63;1.10;;;22.30;99.90;;;;;;5006559;28;20418;-81
2022/08/01 11:21:57;;;;;;;5.97;2.38;;;22.40;99.90;;;;;;5009782;28;20022;-80
2022/08/01 11:24:45;;;;;;;4.20;1.98;;;22.50;99.90;;;;;;5009525;28;20502;-81
2022/08/01 11:27:31;;;;;;;5.88;1.67;;;22.50;99.90;;;;;;5002542;28;20156;-81
2022/08/01 11:30:09;;;;;;;4.70;2.58;;;22.70;99.90;;;;;;5010230;28;20105;-81
2022/08/01 11:32:52;;;;;;;2.97;1.75;;;22.80;99.90;;;;;;5007829;28;20022;-81
2022/08/01 11:35:24;;;;;;;4.07;1.60;;;23.10;99.90;;;;;;5011944;28;20383;-82
2022/08/01 11:37:51;;;;;;;5.70;2.30;;;23.40;99.90;;;;;;5010060;28;20018;-81
2022/08/01 11:40:23;;;;;;;3.03;1.85;;;23.50;99.90;;;;;;5002247;28;20382;-81
2022/08/01 11:42:51;;;;;;;8.20;2.53;;;23.80;99.90;;;;;;5008656;28;20034;-81
2022/08/01 11:45:16;;;;;;;3.38;1.80;;;23.90;99.90;;;;;;5006568;28;20034;-81
2022/08/01 11:47:50;;;;;;;3.75;2.17;;;23.90;99.90;;;;;;5008165;28;20014;-81
2022/08/01 11:50:35;;;;;;;5.50;2.58;;;23.80;99.90;;;;;;5009744;28;20017;-83
2022/08/01 11:53:04;;;;;;;2.75;1.95;;;23.60;99.90;;;;;;5015648;28;20018;-81
2022/08/01 11:55:30;;;;;;;3.38;2.28;;;23.40;99.90;;;;;;5008634;28;20065;-81
2022/08/01 11:58:05;;;;;;;4.53;2.10;;;23.40;99.90;;;;;;5009030;28;20072;-82
2022/08/01 12:00:32;;;;;;;4.47;1.73;;;23.70;99.90;;;;;;5010762;28;20029;-81
2022/08/01 12:03:03;;;;;;;3.95;2.05;;;24.10;99.90;;;;;;5010552;28;20029;-81
2022/08/01 12:05:30;;;;;;;6.50;2.58;;;24.60;99.90;;;;;;5009554;28;20037;-81
2022/08/01 12:07:57;;;;;;;3.00;1.77;;;25.00;99.90;;;;;;5010553;28;20032;-81
2022/08/01 12:10:27;;;;;;;4.70;1.92;;;25.40;96.30;;;;;;5010351;28;20046;-82
2022/08/01 12:12:54;;;;;;;4.15;2.17;;;25.60;99.00;;;;;;5008771;28;20024;-81
2022/08/01 12:15:22;;;;;;;3.05;1.75;;;26.00;95.40;;;;;;5009962;28;20026;-82
2022/08/01 12:17:56;;;;;;;4.85;1.83;;;26.30;87.60;;;;;;5010181;28;20042;-82
2022/08/01 12:20:23;;;;;;;2.40;1.70;;;27.00;87.40;;;;;;5007012;28;20101;-82
2022/08/01 12:22:57;;;;;;;3.75;1.70;;;27.70;79.70;;;;;;5013550;28;20022;-80
2022/08/01 12:25:23;;;;;;;3.80;1.60;;;28.20;74.30;;;;;;5013890;28;20116;-80
2022/08/01 12:27:49;;;;;;;2.80;2.00;;;28.90;68.00;;;;;;5014138;28;20025;-80
2022/08/01 12:30:18;;;;;;;3.92;1.67;;;29.40;65.20;;;;;;5013573;28;20044;-80
2022/08/01 12:32:45;;;;;;;2.72;1.60;;;29.90;63.30;;;;;;5013337;28;20018;-80
2022/08/01 12:35:14;;;;;;;2.83;1.90;;;30.70;62.00;;;;;;5013329;28;20415;-80
2022/08/01 12:37:43;;;;;;;3.25;2.10;;;29.80;61.30;;;;;;5013024;28;20025;-80
2022/08/01 15:35:39;;;;;;;4.88;1.55;;;30.90;52.20;;;;;;5089849;27;20443;-82
2022/08/01 15:38:05;;;;;;;5.55;1.30;;;33.40;43.80;;;;;;5084222;28;20028;-81
2022/08/01 15:40:34;;;;;;;1.83;1.30;;;32.80;42.60;;;;;;5082408;28;20039;-81
2022/08/01 15:43:00;;;;;;;2.40;1.20;;;33.50;42.90;;;;;;5073615;28;20444;-80
2022/08/01 15:45:26;;;;;;;2.35;1.05;;;34.10;40.80;;;;;;5080957;28;20103;-79
2022/08/01 15:47:51;;;;;;;3.30;1.63;;;34.60;39.40;;;;;;5084593;28;20027;-79
2022/08/01 15:50:17;;;;;;;2.13;1.00;;;34.40;39.80;;;;;;5083668;28;20408;-82
2022/08/01 15:52:43;;;;;;;4.55;1.13;;;33.40;41.60;;;;;;5084668;28;20131;-81